Time;durP1;ratioP1;P1;durP2;ratioP2;P2;SDS_P1;SDS_P2;PMS_P1;PMS_P2;Temp;Humidity;BMP_temperature;BMP_pressure;BME280_temperature;BME280_humidity;BME280_pressure;Samples;Min_cycle;Max_cycle;Signal;HPM_P1;HPM_P2
2022/06/21 00:01:01;;;;;;;9.15;5.97;;;;;;;19.05;71.38;100433.61;1790562;78;21565;-60
2022/06/21 00:03:31;;;;;;;9.18;5.40;;;;;;;19.05;71.54;100435.41;1789655;80;21192;-60
2022/06/21 00:06:00;;;;;;;9.23;5.25;;;;;;;19.02;71.95;100432.51;1790775;80;21620;-58
2022/06/21 00:08:31;;;;;;;18.92;7.20;;;;;;;19.02;71.85;100426.33;1790829;80;21067;-60
2022/06/21 00:11:01;;;;;;;55.12;27.10;;;;;;;19.05;71.60;100431.41;1790727;80;21098;-58
2022/06/21 00:13:33;;;;;;;82.12;45.17;;;;;;;19.04;71.75;100426.56;1790823;80;21098;-58
2022/06/21 00:16:05;;;;;;;58.50;28.23;;;;;;;19.05;71.48;100420.73;1790730;80;21074;-60
2022/06/21 00:18:36;;;;;;;24.87;14.78;;;;;;;19.05;71.27;100404.72;1790883;80;21507;-59
2022/06/21 00:21:06;;;;;;;20.37;10.35;;;;;;;19.04;71.11;100401.22;1790755;80;21149;-59
2022/06/21 00:23:35;;;;;;;15.15;8.78;;;;;;;19.02;70.94;100395.16;1790918;80;21560;-59
2022/06/21 00:26:04;;;;;;;10.15;7.20;;;;;;;19.00;70.82;100400.27;1798109;79;21133;-59
2022/06/21 00:28:33;;;;;;;10.80;6.35;;;;;;;18.99;70.77;100389.21;1820193;79;21094;-59
2022/06/21 00:31:01;;;;;;;11.70;5.87;;;;;;;18.98;70.69;100387.50;1817118;79;21075;-59
2022/06/21 00:33:31;;;;;;;12.53;5.85;;;;;;;18.95;70.66;100387.27;1814954;79;21075;-59
2022/06/21 00:36:02;;;;;;;9.98;6.78;;;;;;;18.93;70.84;100386.55;1814856;79;21594;-59
2022/06/21 00:38:34;;;;;;;14.30;6.85;;;;;;;18.90;70.76;100378.32;1814877;79;21506;-59
2022/06/21 00:41:06;;;;;;;17.52;7.97;;;;;;;18.86;71.44;100380.84;1814846;79;21095;-60
2022/06/21 00:43:37;;;;;;;13.55;8.30;;;;;;;18.81;71.84;100372.39;1814837;79;21194;-60
2022/06/21 00:46:21;;;;;;;13.70;7.20;;;;;;;18.74;72.26;100376.94;1814842;78;21530;-58
2022/06/21 00:48:52;;;;;;;9.73;6.20;;;;;;;18.68;72.63;100375.60;1794440;79;21087;-59
2022/06/21 00:51:36;;;;;;;8.43;6.03;;;;;;;18.65;72.75;100370.53;1814885;78;21055;-59
2022/06/21 00:54:08;;;;;;;10.88;6.15;;;;;;;18.63;72.60;100368.48;1814703;78;21578;-59
2022/06/21 00:56:39;;;;;;;13.15;5.78;;;;;;;18.63;72.38;100365.81;1814852;77;21516;-59
2022/06/21 00:59:29;;;;;;;14.78;5.92;;;;;;;18.62;72.47;100357.44;1814859;79;21510;-60
2022/06/21 01:02:03;;;;;;;9.25;4.95;;;;;;;18.60;72.66;100356.71;1814224;79;21475;-60
2022/06/21 01:04:35;;;;;;;13.78;6.17;;;;;;;18.57;72.58;100356.45;1814999;78;21137;-59
2022/06/21 01:07:06;;;;;;;8.88;6.00;;;;;;;18.57;72.47;100351.61;1814873;79;21573;-60
2022/06/21 01:09:50;;;;;;;10.43;5.60;;;;;;;18.55;72.91;100354.39;1814866;79;21518;-60
2022/06/21 01:12:24;;;;;;;13.72;6.15;;;;;;;18.54;72.87;100354.54;1814845;79;21514;-60
2022/06/21 01:15:08;;;;;;;8.85;5.92;;;;;;;18.49;73.10;100345.06;1814503;79;21647;-60
2022/06/21 01:17:37;;;;;;;;;;;;;;;18.50;72.85;100349.44;1817573;79;21573;-60
2022/06/21 01:20:11;;;;;;;9.65;7.25;;;;;;;18.47;73.05;100345.67;1814809;79;20148;-60
2022/06/21 01:22:49;;;;;;;10.32;6.28;;;;;;;18.42;73.46;100342.51;1814763;79;21074;-59
2022/06/21 01:25:26;;;;;;;11.33;7.55;;;;;;;18.38;73.55;100344.22;1773603;79;21092;-59
2022/06/21 01:27:56;;;;;;;9.75;6.05;;;;;;;18.36;73.62;100347.00;1814754;77;21095;-59
2022/06/21 01:30:27;;;;;;;10.05;7.90;;;;;;;18.32;73.83;100341.55;1815352;79;21672;-58
2022/06/21 01:33:01;;;;;;;11.43;6.90;;;;;;;18.26;74.32;100339.34;1784585;80;21076;-59
2022/06/21 01:35:36;;;;;;;11.83;6.53;;;;;;;18.23;74.21;100340.92;1820231;79;21067;-59
2022/06/21 01:38:06;;;;;;;8.83;5.97;;;;;;;18.17;74.65;100334.26;1820324;78;21560;-58
2022/06/21 01:40:38;;;;;;;10.55;5.75;;;;;;;18.14;74.60;100333.16;1820243;78;21051;-58
2022/06/21 01:43:09;;;;;;;9.10;5.60;;;;;;;18.11;74.77;100328.92;1819798;79;21059;-58
2022/06/21 01:45:44;;;;;;;8.10;5.83;;;;;;;18.10;74.69;100325.88;1820209;78;21082;-58
2022/06/21 01:48:16;;;;;;;12.50;6.90;;;;;;;18.11;74.82;100328.92;1820272;79;21185;-58
2022/06/21 01:50:47;;;;;;;9.43;6.08;;;;;;;18.10;75.02;100323.22;1820359;79;21062;-58
2022/06/21 01:53:19;;;;;;;8.23;6.03;;;;;;;18.09;74.94;100332.20;1820295;79;21122;-58
2022/06/21 01:55:50;;;;;;;8.73;6.15;;;;;;;18.07;75.05;100322.61;1820249;78;21059;-58
2022/06/21 01:58:22;;;;;;;9.10;6.05;;;;;;;18.04;75.35;100325.52;1820176;78;21087;-58
2022/06/21 02:00:54;;;;;;;9.30;6.55;;;;;;;18.03;75.36;100321.98;1820322;79;21526;-58
2022/06/21 02:03:25;;;;;;;9.05;6.15;;;;;;;18.07;75.30;100317.27;1820407;78;21063;-58
2022/06/21 02:05:57;;;;;;;13.45;6.47;;;;;;;18.08;75.24;100315.83;1820263;78;21066;-58
2022/06/21 02:08:29;;;;;;;16.50;6.95;;;;;;;18.09;75.37;100314.87;1820407;78;21055;-58
2022/06/21 02:11:03;;;;;;;12.73;7.17;;;;;;;18.14;75.42;100314.02;1819708;79;21086;-58
2022/06/21 02:13:37;;;;;;;10.32;6.12;;;;;;;18.21;75.17;100313.56;1820292;78;21498;-58
2022/06/21 02:16:09;;;;;;;12.18;6.22;;;;;;;18.25;75.08;100313.67;1820000;79;21553;-58
2022/06/21 02:18:41;;;;;;;9.23;5.95;;;;;;;18.30;75.14;100308.84;1818757;79;21043;-58
2022/06/21 02:21:15;;;;;;;12.82;6.72;;;;;;;18.35;75.14;100299.13;1820094;79;21827;-59
2022/06/21 02:23:46;;;;;;;18.85;9.20;;;;;;;18.42;75.03;100301.69;1820255;79;21576;-59
2022/06/21 02:26:15;;;;;;;43.42;17.40;;;;;;;18.44;75.00;100287.28;1820373;79;21095;-59
2022/06/21 02:28:46;;;;;;;44.63;15.68;;;;;;;18.52;74.79;100288.00;1820264;79;21122;-60
2022/06/21 02:31:15;;;;;;;26.33;11.03;;;;;;;18.58;74.53;100283.50;1819197;78;21164;-59
2022/06/21 02:33:46;;;;;;;26.95;10.45;;;;;;;18.62;74.34;100284.11;1837614;78;21102;-59
2022/06/21 02:36:20;;;;;;;17.45;8.98;;;;;;;18.67;74.22;100283.26;1837624;78;21056;-59
2022/06/21 02:38:55;;;;;;;14.38;8.55;;;;;;;18.74;74.07;100279.13;1837668;78;21503;-59
2022/06/21 02:41:36;;;;;;;14.40;7.22;;;;;;;18.88;74.09;100277.53;1806008;79;21149;-59
2022/06/21 02:44:16;;;;;;;13.72;6.70;;;;;;;19.01;73.93;100280.05;1837594;78;21510;-59
2022/06/21 02:46:48;;;;;;;18.52;8.55;;;;;;;19.17;73.81;100276.98;1805943;79;21573;-59
2022/06/21 02:49:19;;;;;;;26.37;12.55;;;;;;;19.38;73.51;100277.50;1837654;78;21533;-59
2022/06/21 02:51:54;;;;;;;26.07;12.50;;;;;;;19.51;73.06;100270.16;1837662;78;21528;-60
2022/06/21 02:54:28;;;;;;;26.97;11.57;;;;;;;19.62;72.73;100270.59;1836897;78;21141;-60
2022/06/21 02:57:03;;;;;;;23.50;9.70;;;;;;;19.73;72.51;100273.72;1837653;78;21059;-60
2022/06/21 02:59:35;;;;;;;13.50;7.92;;;;;;;19.91;72.46;100268.64;1837681;78;21502;-60
2022/06/21 03:02:07;;;;;;;14.35;7.33;;;;;;;20.03;72.00;100267.59;1806089;79;21098;-59
2022/06/21 03:04:41;;;;;;;12.18;6.45;;;;;;;20.04;71.62;100259.42;1837633;78;21483;-59
2022/06/21 03:07:12;;;;;;;13.32;5.60;;;;;;;20.16;71.41;100261.54;1805697;79;21091;-59
2022/06/21 03:09:42;;;;;;;8.70;5.95;;;;;;;20.35;71.31;100263.44;1837514;77;21091;-59
2022/06/21 03:12:13;;;;;;;15.60;5.97;;;;;;;20.56;71.18;100262.52;1805950;79;21507;-59
2022/06/21 03:14:43;;;;;;;9.70;5.17;;;;;;;20.72;70.68;100257.53;1837418;78;21565;-59
2022/06/21 03:17:13;;;;;;;7.50;5.00;;;;;;;20.91;70.75;100259.89;1805986;79;21530;-59
2022/06/21 03:19:51;;;;;;;8.48;4.00;;;;;;;21.08;70.82;100254.34;1837509;78;21134;-59
2022/06/21 03:22:25;;;;;;;9.88;5.12;;;;;;;21.30;70.67;100246.53;1805408;79;21507;-59
2022/06/21 03:24:57;;;;;;;10.93;4.45;;;;;;;21.43;70.20;100246.24;1837623;78;21102;-60
2022/06/21 03:27:34;;;;;;;10.93;4.72;;;;;;;21.48;69.77;100239.50;1806001;79;21091;-59
2022/06/21 03:30:05;;;;;;;10.55;4.75;;;;;;;21.62;69.82;100236.89;1837540;78;21065;-59
2022/06/21 03:32:37;;;;;;;6.60;4.33;;;;;;;21.79;69.85;100236.64;1795862;79;21137;-58
2022/06/21 03:35:08;;;;;;;10.23;5.42;;;;;;;21.92;69.53;100229.12;1815349;79;21058;-59
2022/06/21 03:37:40;;;;;;;9.18;5.80;;;;;;;22.06;69.19;100222.45;1815442;79;21146;-59
2022/06/21 03:43:00;;;;;;;8.05;4.00;;;;;;;22.33;68.02;100222.98;1815230;79;21067;-58
2022/06/21 03:45:32;;;;;;;7.85;3.65;;;;;;;22.52;67.75;100222.53;1815349;79;21054;-61
2022/06/21 03:48:20;;;;;;;11.03;4.62;;;;;;;22.66;67.45;100213.98;1785279;80;21148;-60
2022/06/21 03:50:58;;;;;;;9.00;4.65;;;;;;;22.79;66.72;100216.80;1815288;79;21171;-60
2022/06/21 03:53:36;;;;;;;6.95;4.12;;;;;;;22.96;66.09;100217.81;1815469;79;21051;-60
2022/06/21 03:56:13;;;;;;;8.38;4.15;;;;;;;23.07;65.58;100211.77;1785026;80;21571;-60
2022/06/21 03:58:50;;;;;;;6.35;3.75;;;;;;;23.19;65.14;100208.33;1814755;78;21137;-60
2022/06/21 04:01:38;;;;;;;5.55;3.60;;;;;;;23.29;64.77;100206.89;1815206;79;21572;-62
2022/06/21 04:04:34;;;;;;;9.23;4.05;;;;;;;23.44;64.55;100206.69;1815521;79;21051;-62
2022/06/21 04:07:14;;;;;;;8.03;4.00;;;;;;;23.59;64.06;100198.03;1815603;79;21496;-62
2022/06/21 04:09:52;;;;;;;6.47;3.52;;;;;;;23.73;63.66;100194.78;1800994;79;21141;-60
2022/06/21 04:12:32;;;;;;;28.75;6.40;;;;;;;23.89;63.19;100193.56;1815125;79;21593;-61
2022/06/21 04:15:17;;;;;;;16.20;4.50;;;;;;;24.08;62.97;100192.98;1815373;79;21079;-60
2022/06/21 04:17:48;;;;;;;10.93;3.87;;;;;;;24.38;62.70;100189.41;1785119;79;21074;-63
2022/06/21 04:20:29;;;;;;;7.72;3.58;;;;;;;24.73;62.45;100183.47;1784725;80;21148;-62
2022/06/21 04:23:03;;;;;;;6.03;3.67;;;;;;;25.10;62.15;100183.51;1815341;79;21074;-63
2022/06/21 04:25:41;;;;;;;7.22;3.00;;;;;;;25.52;61.73;100176.61;1815330;79;21467;-63
2022/06/21 04:28:16;;;;;;;5.15;2.55;;;;;;;25.95;61.18;100166.92;1815386;79;21490;-63
2022/06/21 04:30:54;;;;;;;7.60;3.85;;;;;;;26.33;60.44;100168.45;1815419;79;21071;-62
2022/06/21 04:33:25;;;;;;;7.78;3.20;;;;;;;26.71;59.71;100161.87;1824157;77;21588;-62
2022/06/21 04:36:06;;;;;;;10.55;2.90;;;;;;;27.06;58.95;100163.63;1877543;76;21543;-62
2022/06/21 04:38:40;;;;;;;6.03;3.40;;;;;;;27.43;58.32;100156.58;1878616;76;21101;-61
2022/06/21 04:41:12;;;;;;;5.92;2.80;;;;;;;27.77;57.48;100151.97;1878636;76;21023;-61
2022/06/21 04:43:43;;;;;;;2.98;2.35;;;;;;;28.12;56.53;100156.31;1877833;76;21515;-61
2022/06/21 04:46:21;;;;;;;6.78;2.87;;;;;;;28.39;55.66;100156.13;1878990;76;21046;-61
2022/06/21 04:48:58;;;;;;;8.58;2.52;;;;;;;28.63;54.59;100155.48;1878721;76;21019;-60
2022/06/21 04:51:32;;;;;;;6.37;2.40;;;;;;;28.86;53.41;100156.64;1878561;76;21517;-61
2022/06/21 04:54:04;;;;;;;8.03;2.60;;;;;;;29.07;52.61;100158.52;1877726;75;21462;-60
2022/06/21 04:56:42;;;;;;;3.37;2.42;;;;;;;29.23;51.75;100159.63;1878861;76;21015;-61
2022/06/21 04:59:13;;;;;;;11.33;2.70;;;;;;;29.43;51.44;100153.50;1878716;76;21103;-62
2022/06/21 05:01:42;;;;;;;4.40;2.40;;;;;;;29.69;50.67;100143.86;1878535;76;21559;-61
2022/06/21 05:04:14;;;;;;;10.13;2.22;;;;;;;29.86;50.28;100145.23;1878662;76;21422;-61
2022/06/21 05:06:43;;;;;;;4.20;2.55;;;;;;;30.07;49.62;100145.66;1878999;76;21457;-61
2022/06/21 05:09:15;;;;;;;9.08;2.70;;;;;;;30.21;49.51;100141.11;1878732;76;21494;-61
2022/06/21 05:11:45;;;;;;;4.80;2.62;;;;;;;30.33;48.96;100141.41;1878687;76;21018;-60
2022/06/21 05:14:22;;;;;;;7.75;2.50;;;;;;;30.47;48.67;100137.70;1878577;76;21080;-61
2022/06/21 05:16:51;;;;;;;7.50;2.62;;;;;;;30.61;48.46;100131.75;1878433;76;21054;-60
2022/06/21 05:19:33;;;;;;;5.83;2.52;;;;;;;30.88;48.08;100141.32;1878696;76;21030;-60
2022/06/21 05:22:13;;;;;;;7.10;2.77;;;;;;;31.08;47.38;100134.03;1878715;76;21591;-60
2022/06/21 05:24:42;;;;;;;3.08;2.00;;;;;;;31.35;46.95;100132.64;1878727;76;21088;-60
2022/06/21 05:27:17;;;;;;;9.88;2.67;;;;;;;31.59;46.46;100128.98;1878716;76;21088;-60
2022/06/21 05:29:48;;;;;;;3.05;1.87;;;;;;;31.84;45.77;100129.95;1878640;76;21026;-60
2022/06/21 05:32:20;;;;;;;5.42;2.27;;;;;;;32.07;45.40;100124.55;1878886;76;21543;-60
2022/06/21 05:34:52;;;;;;;5.47;2.53;;;;;;;32.31;44.61;100126.55;1895351;75;21127;-61
2022/06/21 05:37:32;;;;;;;7.17;2.30;;;;;;;32.50;44.01;100125.30;1898108;75;21563;-60
2022/06/21 05:40:04;;;;;;;3.15;1.90;;;;;;;32.74;43.13;100125.56;1880930;76;21043;-56
2022/06/21 05:42:33;;;;;;;7.70;1.98;;;;;;;32.91;41.73;100123.98;1881059;76;21082;-57
2022/06/21 05:45:16;;;;;;;3.60;1.80;;;;;;;33.12;39.52;100111.86;1880952;76;21036;-57
2022/06/21 05:47:48;;;;;;;4.65;2.52;;;;;;;33.12;39.52;100111.86;1880910;76;21134;-58
2022/06/21 05:50:20;;;;;;;3.65;1.72;;;;;;;33.27;39.54;100114.23;1880709;76;21549;-58
2022/06/21 05:52:51;;;;;;;2.20;1.70;;;;;;;33.47;39.33;100113.50;1881107;75;21019;-58
2022/06/21 05:55:23;;;;;;;2.70;1.67;;;;;;;33.67;38.58;100101.58;1881168;76;21121;-57
2022/06/21 05:57:58;;;;;;;5.28;1.82;;;;;;;33.76;37.90;100112.50;1881039;76;21147;-59
2022/06/21 06:00:46;;;;;;;3.55;2.00;;;;;;;33.99;37.98;100109.08;1880860;76;21568;-60
2022/06/21 06:03:30;;;;;;;8.25;2.05;;;;;;;34.26;37.31;100105.19;1880879;76;21048;-58
2022/06/21 06:06:07;;;;;;;2.45;1.65;;;;;;;34.26;37.28;100099.18;1880948;76;21063;-60
2022/06/21 06:08:35;;;;;;;6.15;2.20;;;;;;;33.99;36.84;100103.62;1879247;76;21035;-60
2022/06/21 06:11:06;;;;;;;5.87;2.42;;;;;;;33.83;36.39;100096.88;1879574;75;21031;-60
2022/06/21 06:13:38;;;;;;;8.70;2.77;;;;;;;33.98;36.41;100087.45;1881271;76;21011;-60
2022/06/21 06:16:15;;;;;;;5.93;3.13;;;;;;;34.38;36.54;100089.13;1881247;76;21797;-60
2022/06/21 06:19:02;;;;;;;4.87;3.22;;;;;;;34.68;36.22;100086.06;1877955;76;21039;-60
2022/06/21 06:21:36;;;;;;;9.40;4.60;;;;;;;34.97;35.96;100077.48;1880898;76;21039;-60
2022/06/21 06:24:13;;;;;;;3.42;2.55;;;;;;;35.01;35.68;100080.06;1880463;76;21141;-59
2022/06/21 06:26:44;;;;;;;4.22;1.70;;;;;;;34.78;34.82;100083.59;1880882;76;21071;-59
2022/06/21 06:29:31;;;;;;;4.05;2.02;;;;;;;34.59;34.64;100075.45;1880840;76;21521;-61
2022/06/21 06:32:24;;;;;;;6.37;2.10;;;;;;;34.78;34.56;100075.39;1880976;76;21498;-60
2022/06/21 06:34:56;;;;;;;3.02;1.75;;;;;;;35.15;34.42;100075.17;1881102;76;21627;-60
2022/06/21 06:37:42;;;;;;;7.95;2.40;;;;;;;35.55;33.93;100078.56;1881038;76;21094;-60
2022/06/21 06:40:28;;;;;;;6.75;2.62;;;;;;;35.95;33.62;100081.88;1871019;76;21153;-61
2022/06/21 06:42:59;;;;;;;3.52;2.10;;;;;;;36.14;33.40;100079.78;1867071;75;21016;-59
2022/06/21 06:45:31;;;;;;;4.80;2.00;;;;;;;36.03;33.15;100071.89;1869078;77;21059;-60
2022/06/21 06:48:08;;;;;;;6.35;1.80;;;;;;;35.80;32.79;100076.08;1869087;77;21028;-59
2022/06/21 06:50:51;;;;;;;3.80;2.12;;;;;;;35.46;32.56;100071.80;1867430;77;21463;-59
2022/06/21 06:53:41;;;;;;;6.03;2.15;;;;;;;35.18;32.57;100070.09;1869157;77;21024;-58
2022/06/21 06:56:18;;;;;;;9.10;2.35;;;;;;;35.05;32.54;100077.69;1869030;77;21102;-58
2022/06/21 06:58:59;;;;;;;10.58;2.10;;;;;;;35.09;32.71;100066.56;1869015;77;21029;-58
2022/06/21 07:01:33;;;;;;;6.90;2.30;;;;;;;35.03;32.88;100070.23;1869036;77;21004;-58
2022/06/21 07:04:04;;;;;;;6.65;2.70;;;;;;;35.16;32.69;100071.37;1856790;77;21055;-58
2022/06/21 07:06:48;;;;;;;33.53;4.42;;;;;;;35.01;32.61;100060.92;1869305;77;21178;-58
2022/06/21 07:09:20;;;;;;;3.98;2.50;;;;;;;34.91;32.98;100070.23;1868976;77;21043;-58
2022/06/21 07:11:51;;;;;;;4.67;2.17;;;;;;;34.79;32.78;100064.23;1869171;77;21036;-60
2022/06/21 07:14:23;;;;;;;6.37;2.20;;;;;;;34.83;32.52;100052.83;1869062;77;21142;-60
2022/06/21 07:17:00;;;;;;;5.47;2.10;;;;;;;34.83;32.52;100052.83;1869225;77;21039;-60
2022/06/21 07:19:29;;;;;;;5.75;2.37;;;;;;;35.05;32.33;100051.70;1868880;76;21424;-60
2022/06/21 07:21:59;;;;;;;4.08;2.20;;;;;;;35.07;32.02;100043.54;1869218;77;21435;-60
2022/06/21 07:24:28;;;;;;;7.42;2.45;;;;;;;34.91;31.95;100046.45;1868970;77;21532;-60
2022/06/21 07:27:03;;;;;;;10.18;2.30;;;;;;;34.99;32.17;100044.73;1868962;77;21529;-60
2022/06/21 07:29:37;;;;;;;4.72;1.90;;;;;;;35.24;32.01;100040.94;1869048;77;21034;-60
2022/06/21 07:32:15;;;;;;;3.08;2.00;;;;;;;35.42;31.84;100040.51;1866872;77;21106;-60
2022/06/21 07:34:47;;;;;;;7.65;2.08;;;;;;;35.69;31.17;100037.55;1869072;77;21099;-60
2022/06/21 07:37:19;;;;;;;6.62;2.10;;;;;;;35.99;30.74;100037.03;1869013;77;21137;-61
2022/06/21 07:39:50;;;;;;;8.90;2.10;;;;;;;36.42;30.58;100026.86;1869036;76;21048;-59
2022/06/21 07:42:27;;;;;;;3.65;1.65;;;;;;;36.84;30.17;100030.58;1866306;77;21040;-59
2022/06/21 07:44:59;;;;;;;3.25;2.20;;;;;;;37.16;29.68;100028.59;1867269;77;21044;-59
2022/06/21 07:47:33;;;;;;;3.87;1.75;;;;;;;37.01;28.65;100020.13;1869110;77;21036;-59
2022/06/21 07:50:05;;;;;;;8.68;1.87;;;;;;;36.88;28.44;100022.13;1846050;77;21032;-59
2022/06/21 07:52:36;;;;;;;3.55;1.70;;;;;;;36.74;27.93;100018.07;1869117;77;21135;-59
2022/06/21 07:55:08;;;;;;;4.65;2.00;;;;;;;36.66;28.32;100016.59;1869144;77;21541;-59
2022/06/21 07:57:40;;;;;;;13.83;2.42;;;;;;;36.72;28.43;100021.61;1868935;77;21039;-58
2022/06/21 08:00:15;;;;;;;3.27;1.87;;;;;;;36.42;28.58;100020.00;1867843;76;21106;-60
2022/06/21 08:09:11;;;;;;;5.22;2.35;;;;;;;36.00;28.20;100007.99;1868954;77;21487;-59
2022/06/21 08:11:43;;;;;;;6.08;2.10;;;;;;;36.33;28.59;100009.16;1870722;77;21127;-59
2022/06/21 08:14:13;;;;;;;5.95;2.20;;;;;;;36.71;28.45;99993.91;1871000;77;21051;-59
2022/06/21 08:16:53;;;;;;;3.10;1.80;;;;;;;37.01;28.22;99995.44;1870056;77;21012;-58
2022/06/21 08:19:31;;;;;;;2.92;1.95;;;;;;;36.95;27.49;99997.83;1868766;77;21032;-58
2022/06/21 08:22:08;;;;;;;5.50;1.85;;;;;;;36.62;27.50;99988.52;1868420;76;21164;-59
2022/06/21 08:24:50;;;;;;;7.80;2.20;;;;;;;36.50;27.40;99985.34;1868468;77;21040;-59
2022/06/21 08:27:27;;;;;;;2.52;1.82;;;;;;;36.73;27.56;99980.77;1869109;77;21040;-60
2022/06/21 08:29:59;;;;;;;2.30;1.57;;;;;;;37.07;27.58;99980.69;1868917;77;21117;-60
2022/06/21 08:32:36;;;;;;;5.78;2.12;;;;;;;37.01;27.34;99978.97;1867573;77;21794;-60
2022/06/21 08:35:07;;;;;;;8.63;3.42;;;;;;;36.88;27.17;99971.94;1867448;77;21083;-60
2022/06/21 08:37:42;;;;;;;3.75;2.65;;;;;;;36.74;27.40;99965.14;1866643;77;21491;-61
2022/06/21 08:40:36;;;;;;;5.03;2.05;;;;;;;36.70;27.25;99959.33;1868731;76;21091;-59
2022/06/21 08:43:30;;;;;;;3.33;1.82;;;;;;;36.82;27.30;99960.06;1867155;77;21533;-59
2022/06/21 08:46:36;;;;;;;5.83;1.98;;;;;;;36.85;27.69;99948.59;1868942;77;21043;-59
2022/06/21 08:49:25;;;;;;;4.47;1.70;;;;;;;37.06;27.80;99951.61;1868848;77;21032;-59
2022/06/21 08:52:05;;;;;;;4.35;1.85;;;;;;;37.23;27.51;99943.34;1869058;77;21471;-59
2022/06/21 08:54:45;;;;;;;3.95;1.80;;;;;;;37.73;27.36;99938.70;1867682;77;21036;-59
2022/06/21 08:57:20;;;;;;;3.80;1.80;;;;;;;38.11;26.72;99939.09;1868588;77;21074;-61
2022/06/21 08:59:57;;;;;;;3.92;1.80;;;;;;;38.14;26.42;99930.86;1868980;77;21032;-59
2022/06/21 09:02:49;;;;;;;6.67;2.12;;;;;;;38.21;26.38;99930.09;1868985;77;21048;-59
2022/06/21 09:05:29;;;;;;;4.65;1.95;;;;;;;38.22;26.19;99933.14;1868940;77;21560;-61
2022/06/21 09:08:13;;;;;;;3.80;2.05;;;;;;;38.30;26.16;99928.52;1868408;77;21502;-61
2022/06/21 09:10:57;;;;;;;6.05;2.30;;;;;;;38.26;26.11;99920.52;1869114;77;21580;-58
2022/06/21 09:13:31;;;;;;;3.80;1.70;;;;;;;38.18;25.91;99918.23;1868500;77;21113;-60
2022/06/21 09:16:12;;;;;;;6.85;1.87;;;;;;;37.92;25.73;99918.55;1867466;77;21552;-60
2022/06/21 09:19:09;;;;;;;8.03;1.80;;;;;;;38.00;25.95;99909.29;1867808;77;21012;-60
2022/06/21 09:21:40;;;;;;;5.05;1.60;;;;;;;38.23;25.73;99906.73;1869062;77;21552;-59
2022/06/21 09:24:25;;;;;;;8.80;2.10;;;;;;;38.32;25.23;99900.21;1862430;77;21044;-59
2022/06/21 09:27:12;;;;;;;2.95;1.60;;;;;;;38.39;25.04;99899.99;1868920;77;21035;-59
2022/06/21 09:29:43;;;;;;;3.50;1.50;;;;;;;38.52;24.99;99891.27;1868620;77;21051;-60
2022/06/21 09:32:38;;;;;;;9.05;2.30;;;;;;;38.62;24.91;99890.52;1869251;77;21040;-60
2022/06/21 09:35:15;;;;;;;3.77;1.60;;;;;;;38.61;24.70;99886.95;1869044;77;21176;-60
2022/06/21 09:37:50;;;;;;;5.65;1.70;;;;;;;38.60;24.56;99893.53;1868304;77;21035;-60
2022/06/21 09:40:33;;;;;;;7.22;2.27;;;;;;;38.32;24.33;99885.64;1868945;76;21109;-60
2022/06/21 09:43:23;;;;;;;4.08;1.57;;;;;;;37.93;24.25;99888.06;1868903;77;21585;-60
2022/06/21 09:45:58;;;;;;;3.87;1.65;;;;;;;37.68;24.46;99881.79;1868895;77;21519;-61
2022/06/21 09:48:44;;;;;;;2.83;1.75;;;;;;;37.93;24.31;99870.20;1842160;77;21044;-60
2022/06/21 09:51:19;;;;;;;7.97;1.70;;;;;;;38.18;24.34;99861.89;1867543;77;21105;-60
2022/06/21 09:53:54;;;;;;;4.08;1.90;;;;;;;38.33;24.35;99862.02;1868792;77;21115;-60
2022/06/21 09:56:28;;;;;;;6.05;1.98;;;;;;;38.45;23.96;99856.86;1868224;77;21483;-60
2022/06/21 09:59:09;;;;;;;3.37;1.95;;;;;;;38.37;23.94;99856.27;1868925;77;21036;-60
2022/06/21 10:01:46;;;;;;;5.47;1.90;;;;;;;37.90;23.39;99845.17;1868505;77;21036;-59
2022/06/21 10:04:21;;;;;;;4.58;1.90;;;;;;;37.57;23.82;99847.91;1868856;77;21094;-59
2022/06/21 10:07:26;;;;;;;4.90;1.85;;;;;;;37.71;24.04;99839.27;1868921;77;21101;-60
2022/06/21 10:10:26;;;;;;;5.92;2.50;;;;;;;37.81;24.16;99826.45;1869038;77;21072;-59
2022/06/21 10:13:13;;;;;;;6.35;1.87;;;;;;;37.97;24.25;99824.63;1867216;77;21568;-59
2022/06/21 10:15:50;;;;;;;3.05;1.35;;;;;;;38.08;24.39;99828.83;1868919;77;21531;-59
2022/06/21 10:18:27;;;;;;;6.80;2.67;;;;;;;37.92;23.81;99812.77;1868467;77;21040;-60
2022/06/21 10:21:14;;;;;;;9.00;1.90;;;;;;;37.76;24.05;99818.71;1868885;77;21156;-60
2022/06/21 10:24:07;;;;;;;2.67;1.20;;;;;;;37.89;24.16;99811.94;1868783;77;21106;-60
2022/06/21 10:26:41;;;;;;;10.25;2.87;;;;;;;37.97;23.81;99816.94;1869074;77;21039;-60
2022/06/21 10:29:42;;;;;;;7.25;2.47;;;;;;;37.61;23.77;99804.25;1868867;77;21039;-60
2022/06/21 10:32:31;;;;;;;4.78;2.00;;;;;;;37.55;24.12;99801.19;1868899;77;21490;-60
2022/06/21 10:35:19;;;;;;;6.30;1.62;;;;;;;37.71;23.99;99807.12;1868322;77;21572;-61
2022/06/21 10:38:07;;;;;;;7.05;1.92;;;;;;;37.56;23.76;99802.30;1867725;77;21113;-61
2022/06/21 10:40:58;;;;;;;5.60;1.85;;;;;;;37.45;23.85;99797.81;1868883;77;21059;-61
2022/06/21 10:43:38;;;;;;;4.10;1.82;;;;;;;37.34;23.86;99791.39;1868934;77;21451;-60
2022/06/21 10:46:13;;;;;;;2.75;1.90;;;;;;;37.43;23.97;99792.58;1868912;77;21523;-60
2022/06/21 10:49:06;;;;;;;5.97;2.65;;;;;;;37.33;24.17;99786.98;1869049;77;21134;-60
2022/06/21 10:51:54;;;;;;;5.00;2.17;;;;;;;37.24;24.33;99786.64;1868398;77;21036;-58
2022/06/21 10:54:43;;;;;;;11.15;2.15;;;;;;;36.92;24.03;99793.95;1868851;77;21055;-58
2022/06/21 10:57:20;;;;;;;6.55;1.77;;;;;;;36.61;24.57;99781.20;1869152;77;21032;-61
2022/06/21 11:03:11;;;;;;;8.58;1.90;;;;;;;36.60;24.72;99780.39;1868911;77;21096;-60
2022/06/21 11:05:58;;;;;;;2.12;1.62;;;;;;;36.64;24.80;99779.34;1867381;77;21040;-60
2022/06/21 11:08:41;;;;;;;6.90;2.15;;;;;;;36.53;24.66;99781.94;1869006;77;21051;-60
2022/06/21 11:11:34;;;;;;;3.98;1.85;;;;;;;36.39;24.95;99777.09;1868387;77;21109;-59
2022/06/21 11:14:20;;;;;;;;;;;;;;;36.43;25.03;99776.86;1871220;77;21110;-59
2022/06/21 11:17:04;;;;;;;4.72;1.80;;;;;;;36.47;25.24;99777.48;1868813;77;20125;-60
2022/06/21 11:19:38;;;;;;;4.90;1.85;;;;;;;36.49;25.48;99776.69;1868928;77;21051;-59
2022/06/21 11:22:12;;;;;;;4.92;1.65;;;;;;;36.39;25.13;99775.20;1867975;77;21047;-58
2022/06/21 11:24:53;;;;;;;3.17;2.08;;;;;;;36.35;25.10;99780.87;1866500;77;21111;-61
2022/06/21 11:27:39;;;;;;;6.85;2.08;;;;;;;36.52;25.25;99773.44;1868447;77;21036;-61
2022/06/21 11:30:20;;;;;;;7.47;2.10;;;;;;;36.51;25.17;99764.92;1868881;77;21043;-59
2022/06/21 11:33:00;;;;;;;5.95;1.77;;;;;;;36.62;25.40;99760.39;1868679;77;21032;-58
2022/06/21 11:35:37;;;;;;;4.53;1.87;;;;;;;36.72;25.52;99765.19;1868205;77;21032;-58
2022/06/21 11:38:24;;;;;;;4.83;1.80;;;;;;;36.65;25.65;99764.52;1868317;77;21107;-58
2022/06/21 11:40:58;;;;;;;2.22;1.65;;;;;;;36.57;25.50;99764.98;1868525;77;21117;-60
2022/06/21 11:43:47;;;;;;;6.10;1.98;;;;;;;36.47;25.53;99762.95;1877249;76;21153;-60
2022/06/21 11:46:27;;;;;;;4.37;2.00;;;;;;;36.38;25.77;99762.56;1878092;76;21214;-61
2022/06/21 11:49:34;;;;;;;3.90;1.67;;;;;;;36.44;25.71;99755.23;1873159;76;21148;-60
2022/06/21 11:52:08;;;;;;;6.67;1.85;;;;;;;36.45;25.77;99749.50;1878381;76;21365;-60
2022/06/21 11:55:02;;;;;;;14.73;2.22;;;;;;;36.63;25.53;99754.36;1876452;76;21039;-58
2022/06/21 11:57:45;;;;;;;5.67;2.50;;;;;;;36.74;25.47;99745.19;1878392;76;21016;-58
2022/06/21 12:00:26;;;;;;;4.28;2.02;;;;;;;36.68;25.37;99744.86;1877835;76;21012;-58
2022/06/21 12:03:04;;;;;;;5.22;2.22;;;;;;;36.46;25.38;99748.95;1858557;76;21113;-59
2022/06/21 12:05:55;;;;;;;4.12;1.87;;;;;;;36.12;25.36;99745.75;1846641;77;21071;-58
2022/06/21 12:08:32;;;;;;;7.50;2.20;;;;;;;35.88;25.45;99742.94;1867359;76;21584;-59
2022/06/21 12:11:22;;;;;;;7.95;2.35;;;;;;;35.73;25.45;99742.17;1877476;76;21102;-59
2022/06/21 12:14:09;;;;;;;6.55;1.92;;;;;;;35.56;25.29;99740.75;1878214;76;21043;-59
2022/06/21 12:17:14;;;;;;;3.98;1.87;;;;;;;35.56;25.40;99742.13;1875145;76;21012;-59
2022/06/21 12:19:46;;;;;;;4.70;2.75;;;;;;;35.51;25.58;99732.48;1868794;76;21486;-59
2022/06/21 12:22:23;;;;;;;5.35;1.90;;;;;;;35.37;25.77;99736.89;1846931;78;21023;-59
2022/06/21 12:24:52;;;;;;;3.90;1.87;;;;;;;35.28;25.91;99737.56;1846792;78;21561;-57